PWSweather.com
Personal Weather Stations
Station Observations
MUNLOCHY
Munlochy Mill, MunlochyGB IV8 8NL

Munlochy MillMunlochyGB IV8 8NL

Lat: 57.548611, Lon: -4.2625966

Elevation: 62.336

Station Type: Oregon Scientific WMR200

http://www.millbankhouse.co.uk

Latest ConditionsUpdated 9:45:01 PM GMT Sunday, May 27, 2018
Currently Today's Max Today's Min Today's Average
Temperature 50.4°F10.2°C 59.0°F15.0°C 47.1°F8.4°C 53.3°F11.8°C
Dew Point 48.8°F9.3°C 54.4°F12.4°C 46.6°F8.1°C 50.2°F10.1°C
Winds 2.3 mph WNW3.7 kmh WNW 12.7 mph SE20.4 kmh SE - 6.2 mph 10.0 kmh
Wind Gusts 4.6 mph7.4 kmh 19.6 mph31.5 kmh - -
Humidity 94% 99% 79% 90%
Pressure 30.20 in1022.7 mb 30.46 in1031.5 mb 30.18 in1022.0 mb -
Hour Temp Dew Point Humidity Winds Wind Gusts Pressure Precip Precip Rate Daily Precip Total
09:45 PM 50.4°F10.2°C 48.8°F9.3°C 94% 2.3 mph WNW3.7 kmh WNW 4.6 mph7.4 kmh 30.20 in1022.7 mb - 0.00 in0.0 mm 0.00 in0.0 mm
09:40 PM 50.5°F10.3°C 48.9°F9.4°C 94% 2.3 mph NNW3.7 kmh NNW 4.6 mph7.4 kmh 30.19 in1022.4 mb - 0.00 in0.0 mm 0.00 in0.0 mm
09:35 PM 50.7°F10.4°C 49.1°F9.5°C 94% 2.3 mph SE3.7 kmh SE 3.5 mph5.6 kmh 30.19 in1022.4 mb - 0.00 in0.0 mm 0.00 in0.0 mm
09:30 PM 51.2°F10.7°C 48.9°F9.4°C 92% 2.3 mph SE3.7 kmh SE 2.3 mph3.7 kmh 30.19 in1022.4 mb - 0.00 in0.0 mm 0.00 in0.0 mm
09:25 PM 51.6°F10.9°C 49.7°F9.8°C 93% 1.2 mph NNE1.9 kmh NNE 2.3 mph3.7 kmh 30.19 in1022.4 mb - 0.00 in0.0 mm 0.00 in0.0 mm
09:20 PM 51.9°F11.1°C 50.0°F10.0°C 93% 1.2 mph NNW1.9 kmh NNW 2.3 mph3.7 kmh 30.19 in1022.4 mb - 0.00 in0.0 mm 0.00 in0.0 mm
09:15 PM 52.3°F11.3°C 50.3°F10.2°C 93% 1.2 mph NW1.9 kmh NW 4.6 mph7.4 kmh 30.19 in1022.4 mb - 0.00 in0.0 mm 0.00 in0.0 mm
09:10 PM 52.7°F11.5°C 50.4°F10.2°C 92% 1.2 mph ENE1.9 kmh ENE -- 30.19 in1022.4 mb - 0.00 in0.0 mm 0.00 in0.0 mm
09:00 PM 53.4°F11.9°C 50.9°F10.5°C 91% Calm Calm 2.3 mph3.7 kmh 30.19 in1022.4 mb - 0.00 in0.0 mm 0.00 in0.0 mm
08:55 PM 53.8°F12.1°C 51.2°F10.7°C 91% 2.3 mph N3.7 kmh N 2.3 mph3.7 kmh 30.19 in1022.4 mb - 0.00 in0.0 mm 0.00 in0.0 mm
08:50 PM 54.0°F12.2°C 51.4°F10.8°C 91% 2.3 mph N3.7 kmh N 2.3 mph3.7 kmh 30.19 in1022.4 mb - 0.00 in0.0 mm 0.00 in0.0 mm
08:45 PM 54.2°F12.3°C 51.6°F10.9°C 91% 3.5 mph N5.6 kmh N 2.3 mph3.7 kmh 30.19 in1022.4 mb - 0.00 in0.0 mm 0.00 in0.0 mm
08:40 PM 54.3°F12.4°C 51.4°F10.8°C 90% 3.5 mph NE5.6 kmh NE 3.5 mph5.6 kmh 30.19 in1022.4 mb - 0.00 in0.0 mm 0.00 in0.0 mm
08:35 PM 54.5°F12.5°C 51.6°F10.9°C 90% 2.3 mph NE3.7 kmh NE 4.6 mph7.4 kmh 30.19 in1022.4 mb - 0.00 in0.0 mm 0.00 in0.0 mm
08:30 PM 54.7°F12.6°C 52.1°F11.2°C 91% 2.3 mph NE3.7 kmh NE 4.6 mph7.4 kmh 30.19 in1022.4 mb - 0.00 in0.0 mm 0.00 in0.0 mm
08:25 PM 54.7°F12.6°C 52.1°F11.2°C 91% 2.3 mph NE3.7 kmh NE 4.6 mph7.4 kmh 30.19 in1022.4 mb - 0.00 in0.0 mm 0.00 in0.0 mm
08:20 PM 54.9°F12.7°C 52.0°F11.1°C 90% 2.3 mph ENE3.7 kmh ENE 2.3 mph3.7 kmh 30.19 in1022.4 mb - 0.00 in0.0 mm 0.00 in0.0 mm
08:15 PM 55.0°F12.8°C 52.2°F11.2°C 90% 2.3 mph E3.7 kmh E 3.5 mph5.6 kmh 30.19 in1022.4 mb - 0.00 in0.0 mm 0.00 in0.0 mm
08:10 PM 55.4°F13.0°C 52.5°F11.4°C 90% 2.3 mph ENE3.7 kmh ENE 2.3 mph3.7 kmh 30.18 in1022.0 mb - 0.00 in0.0 mm 0.00 in0.0 mm
08:00 PM 55.9°F13.3°C 52.7°F11.5°C 89% 2.3 mph E3.7 kmh E 4.6 mph7.4 kmh 30.18 in1022.0 mb - 0.00 in0.0 mm 0.00 in0.0 mm
07:55 PM 56.1°F13.4°C 52.9°F11.6°C 89% 2.3 mph ESE3.7 kmh ESE 2.3 mph3.7 kmh 30.18 in1022.0 mb - 0.00 in0.0 mm 0.00 in0.0 mm
07:50 PM 56.5°F13.6°C 53.0°F11.7°C 88% 2.3 mph E3.7 kmh E 2.3 mph3.7 kmh 30.18 in1022.0 mb - 0.00 in0.0 mm 0.00 in0.0 mm
07:45 PM 56.6°F13.7°C 53.1°F11.7°C 88% 2.3 mph E3.7 kmh E 3.5 mph5.6 kmh 30.18 in1022.0 mb - 0.00 in0.0 mm 0.00 in0.0 mm
07:40 PM 56.9°F13.8°C 53.1°F11.7°C 87% 2.3 mph E3.7 kmh E 3.5 mph5.6 kmh 30.18 in1022.0 mb - 0.00 in0.0 mm 0.00 in0.0 mm
07:35 PM 57.4°F14.1°C 53.2°F11.8°C 86% 2.3 mph ESE3.7 kmh ESE 3.5 mph5.6 kmh 30.18 in1022.0 mb - 0.00 in0.0 mm 0.00 in0.0 mm
07:30 PM 57.6°F14.2°C 53.1°F11.7°C 85% 2.3 mph E3.7 kmh E 3.5 mph5.6 kmh 30.18 in1022.0 mb - 0.00 in0.0 mm 0.00 in0.0 mm
07:25 PM 57.8°F14.3°C 53.3°F11.8°C 85% 3.5 mph E5.6 kmh E 4.6 mph7.4 kmh 30.18 in1022.0 mb - 0.00 in0.0 mm 0.00 in0.0 mm
07:20 PM 57.9°F14.4°C 53.4°F11.9°C 85% 3.5 mph E5.6 kmh E 4.6 mph7.4 kmh 30.18 in1022.0 mb - 0.00 in0.0 mm 0.00 in0.0 mm
07:15 PM 58.0°F14.4°C 53.2°F11.8°C 84% 2.3 mph NE3.7 kmh NE 3.5 mph5.6 kmh 30.18 in1022.0 mb - 0.00 in0.0 mm 0.00 in0.0 mm
07:00 PM 58.3°F14.6°C 53.8°F12.1°C 85% 2.3 mph E3.7 kmh E 4.6 mph7.4 kmh 30.18 in1022.0 mb - 0.00 in0.0 mm 0.00 in0.0 mm
06:55 PM 58.1°F14.5°C 53.6°F12.0°C 85% 2.3 mph SE3.7 kmh SE 3.5 mph5.6 kmh 30.18 in1022.0 mb - 0.00 in0.0 mm 0.00 in0.0 mm
06:50 PM 58.0°F14.4°C 53.5°F11.9°C 85% 2.3 mph E3.7 kmh E 5.8 mph9.3 kmh 30.18 in1022.0 mb - 0.00 in0.0 mm 0.00 in0.0 mm
06:45 PM 58.3°F14.6°C 53.4°F11.9°C 84% 3.5 mph ESE5.6 kmh ESE 2.3 mph3.7 kmh 30.18 in1022.0 mb - 0.00 in0.0 mm 0.00 in0.0 mm
06:40 PM 58.5°F14.7°C 53.6°F12.0°C 84% 3.5 mph ESE5.6 kmh ESE 4.6 mph7.4 kmh 30.18 in1022.0 mb - 0.00 in0.0 mm 0.00 in0.0 mm
06:35 PM 58.6°F14.8°C 53.4°F11.9°C 83% 2.3 mph ENE3.7 kmh ENE 4.6 mph7.4 kmh 30.18 in1022.0 mb - 0.00 in0.0 mm 0.00 in0.0 mm
06:30 PM 58.5°F14.7°C 53.6°F12.0°C 84% 2.3 mph NE3.7 kmh NE 4.6 mph7.4 kmh 30.18 in1022.0 mb - 0.00 in0.0 mm 0.00 in0.0 mm
06:25 PM 58.5°F14.7°C 53.6°F12.0°C 84% 2.3 mph ESE3.7 kmh ESE 4.6 mph7.4 kmh 30.19 in1022.4 mb - 0.00 in0.0 mm 0.00 in0.0 mm
06:20 PM 58.6°F14.8°C 53.8°F12.1°C 84% 2.3 mph ESE3.7 kmh ESE 4.6 mph7.4 kmh 30.19 in1022.4 mb - 0.00 in0.0 mm 0.00 in0.0 mm
06:15 PM 58.5°F14.7°C 53.7°F12.1°C 84% 2.3 mph ESE3.7 kmh ESE 3.5 mph5.6 kmh 30.19 in1022.4 mb - 0.00 in0.0 mm 0.00 in0.0 mm
06:10 PM 58.6°F14.8°C 53.5°F11.9°C 83% 2.3 mph SE3.7 kmh SE 4.6 mph7.4 kmh 30.19 in1022.4 mb - 0.00 in0.0 mm 0.00 in0.0 mm
06:00 PM 58.5°F14.7°C 53.7°F12.1°C 84% 2.3 mph NE3.7 kmh NE 4.6 mph7.4 kmh 30.19 in1022.4 mb - 0.00 in0.0 mm 0.00 in0.0 mm
05:55 PM 58.3°F14.6°C 53.8°F12.1°C 85% 2.3 mph E3.7 kmh E 3.5 mph5.6 kmh 30.19 in1022.4 mb - 0.00 in0.0 mm 0.00 in0.0 mm
05:50 PM 58.1°F14.5°C 54.0°F12.2°C 86% 2.3 mph SE3.7 kmh SE 5.8 mph9.3 kmh 30.19 in1022.4 mb - 0.00 in0.0 mm 0.00 in0.0 mm
05:45 PM 57.9°F14.4°C 54.4°F12.4°C 88% 3.5 mph NE5.6 kmh NE 2.3 mph3.7 kmh 30.19 in1022.4 mb - 0.00 in0.0 mm 0.00 in0.0 mm
05:40 PM 57.7°F14.3°C 54.2°F12.3°C 88% 3.5 mph E5.6 kmh E 4.6 mph7.4 kmh 30.19 in1022.4 mb - 0.00 in0.0 mm 0.00 in0.0 mm
05:35 PM 57.6°F14.2°C 53.7°F12.1°C 87% 4.6 mph ESE7.4 kmh ESE 5.8 mph9.3 kmh 30.19 in1022.4 mb - 0.00 in0.0 mm 0.00 in0.0 mm
05:30 PM 57.6°F14.2°C 54.0°F12.2°C 88% 4.6 mph SE7.4 kmh SE 3.5 mph5.6 kmh 30.19 in1022.4 mb - 0.00 in0.0 mm 0.00 in0.0 mm
05:25 PM 57.3°F14.1°C 53.8°F12.1°C 88% 4.6 mph ESE7.4 kmh ESE 4.6 mph7.4 kmh 30.19 in1022.4 mb - 0.00 in0.0 mm 0.00 in0.0 mm
05:20 PM 57.1°F13.9°C 53.6°F12.0°C 88% 4.6 mph SE7.4 kmh SE 5.8 mph9.3 kmh 30.19 in1022.4 mb - 0.00 in0.0 mm 0.00 in0.0 mm
05:15 PM 57.2°F14.0°C 53.4°F11.9°C 87% 4.6 mph E7.4 kmh E 4.6 mph7.4 kmh 30.19 in1022.4 mb - 0.00 in0.0 mm 0.00 in0.0 mm
05:10 PM 57.4°F14.1°C 53.5°F11.9°C 87% 4.6 mph ESE7.4 kmh ESE 5.8 mph9.3 kmh 30.19 in1022.4 mb - 0.00 in0.0 mm 0.00 in0.0 mm
05:00 PM 57.6°F14.2°C 53.4°F11.9°C 86% 4.6 mph ESE7.4 kmh ESE 6.9 mph11.1 kmh 30.19 in1022.4 mb - 0.00 in0.0 mm 0.00 in0.0 mm
04:55 PM 57.4°F14.1°C 53.6°F12.0°C 87% 5.8 mph SE9.3 kmh SE 8.1 mph13.0 kmh 30.19 in1022.4 mb - 0.00 in0.0 mm 0.00 in0.0 mm
04:50 PM 57.3°F14.1°C 53.5°F11.9°C 87% 5.8 mph SE9.3 kmh SE 5.8 mph9.3 kmh 30.19 in1022.4 mb - 0.00 in0.0 mm 0.00 in0.0 mm
04:45 PM 57.2°F14.0°C 53.4°F11.9°C 87% 6.9 mph SE11.1 kmh SE 6.9 mph11.1 kmh 30.19 in1022.4 mb - 0.00 in0.0 mm 0.00 in0.0 mm
04:40 PM 57.4°F14.1°C 53.2°F11.8°C 86% 6.9 mph ESE11.1 kmh ESE 8.1 mph13.0 kmh 30.19 in1022.4 mb - 0.00 in0.0 mm 0.00 in0.0 mm
04:35 PM 57.4°F14.1°C 53.2°F11.8°C 86% 5.8 mph SE9.3 kmh SE 6.9 mph11.1 kmh 30.19 in1022.4 mb - 0.00 in0.0 mm 0.00 in0.0 mm
04:30 PM 57.4°F14.1°C 52.9°F11.6°C 85% 5.8 mph SE9.3 kmh SE 11.5 mph18.5 kmh 30.19 in1022.4 mb - 0.00 in0.0 mm 0.00 in0.0 mm
04:25 PM 57.4°F14.1°C 53.2°F11.8°C 86% 5.8 mph SE9.3 kmh SE 8.1 mph13.0 kmh 30.20 in1022.7 mb - 0.00 in0.0 mm 0.00 in0.0 mm
04:20 PM 57.0°F13.9°C 53.2°F11.8°C 87% 5.8 mph SE9.3 kmh SE 6.9 mph11.1 kmh 30.20 in1022.7 mb - 0.00 in0.0 mm 0.00 in0.0 mm
04:15 PM 56.9°F13.8°C 52.7°F11.5°C 86% 6.9 mph SE11.1 kmh SE 9.2 mph14.8 kmh 30.20 in1022.7 mb - 0.00 in0.0 mm 0.00 in0.0 mm
04:10 PM 57.0°F13.9°C 52.9°F11.6°C 86% 6.9 mph SE11.1 kmh SE 8.1 mph13.0 kmh 30.20 in1022.7 mb - 0.00 in0.0 mm 0.00 in0.0 mm
04:00 PM 57.2°F14.0°C 53.1°F11.7°C 86% 8.1 mph ESE13.0 kmh ESE 10.4 mph16.7 kmh 30.20 in1022.7 mb - 0.00 in0.0 mm 0.00 in0.0 mm
03:55 PM 57.3°F14.1°C 52.8°F11.6°C 85% 8.1 mph SE13.0 kmh SE 11.5 mph18.5 kmh 30.20 in1022.7 mb - 0.00 in0.0 mm 0.00 in0.0 mm
03:50 PM 57.5°F14.2°C 53.0°F11.7°C 85% 8.1 mph SE13.0 kmh SE 13.8 mph22.2 kmh 30.20 in1022.7 mb - 0.00 in0.0 mm 0.00 in0.0 mm
03:45 PM 57.1°F13.9°C 53.3°F11.8°C 87% 11.5 mph ESE18.5 kmh ESE 11.5 mph18.5 kmh 30.20 in1022.7 mb - 0.00 in0.0 mm 0.00 in0.0 mm
03:40 PM 56.9°F13.8°C 53.1°F11.7°C 87% 11.5 mph SE18.5 kmh SE 11.5 mph18.5 kmh 30.21 in1023.0 mb - 0.00 in0.0 mm 0.00 in0.0 mm
03:35 PM 57.0°F13.9°C 52.9°F11.6°C 86% 11.5 mph SE18.5 kmh SE 15.0 mph24.1 kmh 30.21 in1023.0 mb - 0.00 in0.0 mm 0.00 in0.0 mm
03:30 PM 57.3°F14.1°C 53.1°F11.7°C 86% 11.5 mph SE18.5 kmh SE 18.4 mph29.6 kmh 30.21 in1023.0 mb - 0.00 in0.0 mm 0.00 in0.0 mm
03:25 PM 58.1°F14.5°C 53.3°F11.8°C 84% 10.4 mph SE16.7 kmh SE 17.3 mph27.8 kmh 30.21 in1023.0 mb - 0.00 in0.0 mm 0.00 in0.0 mm
03:20 PM 58.3°F14.6°C 53.8°F12.1°C 85% 10.4 mph SE16.7 kmh SE 12.7 mph20.4 kmh 30.21 in1023.0 mb - 0.00 in0.0 mm 0.00 in0.0 mm
03:15 PM 58.2°F14.6°C 54.1°F12.3°C 86% 9.2 mph ESE14.8 kmh ESE 12.7 mph20.4 kmh 30.21 in1023.0 mb - 0.00 in0.0 mm 0.00 in0.0 mm
03:10 PM 57.9°F14.4°C 53.1°F11.7°C 84% 9.2 mph ESE14.8 kmh ESE 15.0 mph24.1 kmh 30.21 in1023.0 mb - 0.00 in0.0 mm 0.00 in0.0 mm
03:00 PM 58.1°F14.5°C 53.9°F12.2°C 86% 11.5 mph ESE18.5 kmh ESE 15.0 mph24.1 kmh 30.21 in1023.0 mb - 0.00 in0.0 mm 0.00 in0.0 mm
02:55 PM 57.6°F14.2°C 53.5°F11.9°C 86% 12.7 mph SE20.4 kmh SE 15.0 mph24.1 kmh 30.22 in1023.4 mb - 0.00 in0.0 mm 0.00 in0.0 mm
02:50 PM 57.5°F14.2°C 52.4°F11.3°C 83% 12.7 mph SE20.4 kmh SE 16.1 mph25.9 kmh 30.22 in1023.4 mb - 0.00 in0.0 mm 0.00 in0.0 mm
02:45 PM 57.7°F14.3°C 52.5°F11.4°C 83% 10.4 mph SE16.7 kmh SE 19.6 mph31.5 kmh 30.22 in1023.4 mb - 0.00 in0.0 mm 0.00 in0.0 mm
02:40 PM 58.1°F14.5°C 52.6°F11.4°C 82% 10.4 mph SE16.7 kmh SE 17.3 mph27.8 kmh 30.22 in1023.4 mb - 0.00 in0.0 mm 0.00 in0.0 mm
02:35 PM 58.5°F14.7°C 53.0°F11.7°C 82% 10.4 mph SE16.7 kmh SE 12.7 mph20.4 kmh 30.22 in1023.4 mb - 0.00 in0.0 mm 0.00 in0.0 mm
02:30 PM 58.4°F14.7°C 52.6°F11.4°C 81% 10.4 mph SE16.7 kmh SE 13.8 mph22.2 kmh 30.22 in1023.4 mb - 0.00 in0.0 mm 0.00 in0.0 mm
02:25 PM 58.6°F14.8°C 53.2°F11.8°C 82% 11.5 mph SE18.5 kmh SE 13.8 mph22.2 kmh 30.22 in1023.4 mb - 0.00 in0.0 mm 0.00 in0.0 mm
02:20 PM 58.4°F14.7°C 52.9°F11.6°C 82% 11.5 mph ESE18.5 kmh ESE 17.3 mph27.8 kmh 30.22 in1023.4 mb - 0.00 in0.0 mm 0.00 in0.0 mm
02:15 PM 58.4°F14.7°C 53.0°F11.7°C 82% 12.7 mph SE20.4 kmh SE 19.6 mph31.5 kmh 30.22 in1023.4 mb - 0.00 in0.0 mm 0.00 in0.0 mm
02:10 PM 58.3°F14.6°C 53.1°F11.7°C 83% 12.7 mph SE20.4 kmh SE 15.0 mph24.1 kmh 30.22 in1023.4 mb - 0.00 in0.0 mm 0.00 in0.0 mm
02:00 PM 57.9°F14.4°C 52.8°F11.6°C 83% 12.7 mph SE20.4 kmh SE 18.4 mph29.6 kmh 30.22 in1023.4 mb - 0.00 in0.0 mm 0.00 in0.0 mm
01:55 PM 58.4°F14.7°C 52.5°F11.4°C 81% 12.7 mph SE20.4 kmh SE 17.3 mph27.8 kmh 30.24 in1024.0 mb - 0.00 in0.0 mm 0.00 in0.0 mm
01:50 PM 57.8°F14.3°C 52.7°F11.5°C 83% 12.7 mph SE20.4 kmh SE 16.1 mph25.9 kmh 30.24 in1024.0 mb - 0.00 in0.0 mm 0.00 in0.0 mm
01:45 PM 57.8°F14.3°C 52.0°F11.1°C 81% 10.4 mph SE16.7 kmh SE 16.1 mph25.9 kmh 30.24 in1024.0 mb - 0.00 in0.0 mm 0.00 in0.0 mm
01:40 PM 58.2°F14.6°C 52.1°F11.2°C 80% 10.4 mph SE16.7 kmh SE 17.3 mph27.8 kmh 30.24 in1024.0 mb - 0.00 in0.0 mm 0.00 in0.0 mm
01:35 PM 59.0°F15.0°C 52.5°F11.4°C 79% 10.4 mph SE16.7 kmh SE 13.8 mph22.2 kmh 30.24 in1024.0 mb - 0.00 in0.0 mm 0.00 in0.0 mm
01:30 PM 58.6°F14.8°C 52.8°F11.6°C 81% 10.4 mph SE16.7 kmh SE 13.8 mph22.2 kmh 30.24 in1024.0 mb - 0.00 in0.0 mm 0.00 in0.0 mm
01:25 PM 58.2°F14.6°C 52.7°F11.5°C 82% 11.5 mph SE18.5 kmh SE 15.0 mph24.1 kmh 30.25 in1024.4 mb - 0.00 in0.0 mm 0.00 in0.0 mm
01:20 PM 57.8°F14.3°C 52.7°F11.5°C 83% 11.5 mph SE18.5 kmh SE 15.0 mph24.1 kmh 30.25 in1024.4 mb - 0.00 in0.0 mm 0.00 in0.0 mm
01:15 PM 57.8°F14.3°C 52.0°F11.1°C 81% 9.2 mph SE14.8 kmh SE 15.0 mph24.1 kmh 30.25 in1024.4 mb - 0.00 in0.0 mm 0.00 in0.0 mm
01:10 PM 58.4°F14.7°C 52.2°F11.2°C 80% 9.2 mph SE14.8 kmh SE 16.1 mph25.9 kmh 30.25 in1024.4 mb - 0.00 in0.0 mm 0.00 in0.0 mm
01:00 PM 58.6°F14.8°C 52.5°F11.4°C 80% 8.1 mph SE13.0 kmh SE 15.0 mph24.1 kmh 30.25 in1024.4 mb - 0.00 in0.0 mm 0.00 in0.0 mm
12:55 PM 57.9°F14.4°C 52.1°F11.2°C 81% 9.2 mph SE14.8 kmh SE 15.0 mph24.1 kmh 30.25 in1024.4 mb - 0.00 in0.0 mm 0.00 in0.0 mm
12:50 PM 57.7°F14.3°C 52.3°F11.3°C 82% 9.2 mph ESE14.8 kmh ESE 10.4 mph16.7 kmh 30.25 in1024.4 mb - 0.00 in0.0 mm 0.00 in0.0 mm
12:45 PM 57.7°F14.3°C 52.3°F11.3°C 82% 10.4 mph ESE16.7 kmh ESE 15.0 mph24.1 kmh 30.25 in1024.4 mb - 0.00 in0.0 mm 0.00 in0.0 mm
12:40 PM 57.3°F14.1°C 52.2°F11.2°C 83% 10.4 mph ESE16.7 kmh ESE 11.5 mph18.5 kmh 30.26 in1024.7 mb - 0.00 in0.0 mm 0.00 in0.0 mm
12:35 PM 57.1°F13.9°C 52.0°F11.1°C 83% 9.2 mph ESE14.8 kmh ESE 13.8 mph22.2 kmh 30.26 in1024.7 mb - 0.00 in0.0 mm 0.00 in0.0 mm
12:30 PM 57.5°F14.2°C 52.4°F11.3°C 83% 9.2 mph SE14.8 kmh SE 13.8 mph22.2 kmh 30.26 in1024.7 mb - 0.00 in0.0 mm 0.00 in0.0 mm
12:25 PM 57.0°F13.9°C 52.3°F11.3°C 84% 11.5 mph SE18.5 kmh SE 12.7 mph20.4 kmh 30.26 in1024.7 mb - 0.00 in0.0 mm 0.00 in0.0 mm
12:20 PM 57.0°F13.9°C 51.9°F11.1°C 83% 11.5 mph SE18.5 kmh SE 16.1 mph25.9 kmh 30.26 in1024.7 mb - 0.00 in0.0 mm 0.00 in0.0 mm
12:15 PM 57.0°F13.9°C 50.9°F10.5°C 80% 11.5 mph SE18.5 kmh SE 15.0 mph24.1 kmh 30.26 in1024.7 mb - 0.00 in0.0 mm 0.00 in0.0 mm
12:10 PM 56.8°F13.8°C 51.3°F10.7°C 82% 11.5 mph ESE18.5 kmh ESE 15.0 mph24.1 kmh 30.27 in1025.1 mb - 0.00 in0.0 mm 0.00 in0.0 mm
12:00 PM 56.8°F13.8°C 51.3°F10.7°C 82% 10.4 mph SE16.7 kmh SE 17.3 mph27.8 kmh 30.27 in1025.1 mb - 0.00 in0.0 mm 0.00 in0.0 mm
11:55 AM 56.8°F13.8°C 51.4°F10.8°C 82% 9.2 mph SE14.8 kmh SE 12.7 mph20.4 kmh 30.27 in1025.1 mb - 0.00 in0.0 mm 0.00 in0.0 mm
11:50 AM 56.7°F13.7°C 51.3°F10.7°C 82% 9.2 mph SE14.8 kmh SE 13.8 mph22.2 kmh 30.27 in1025.1 mb - 0.00 in0.0 mm 0.00 in0.0 mm
11:45 AM 56.6°F13.7°C 51.2°F10.7°C 82% 10.4 mph ESE16.7 kmh ESE 15.0 mph24.1 kmh 30.27 in1025.1 mb - 0.00 in0.0 mm 0.00 in0.0 mm
11:40 AM 56.4°F13.6°C 51.0°F10.6°C 82% 10.4 mph SE16.7 kmh SE 15.0 mph24.1 kmh 30.28 in1025.4 mb - 0.00 in0.0 mm 0.00 in0.0 mm
11:35 AM 56.3°F13.5°C 50.9°F10.5°C 82% 9.2 mph SE14.8 kmh SE 13.8 mph22.2 kmh 30.28 in1025.4 mb - 0.00 in0.0 mm 0.00 in0.0 mm
11:30 AM 56.3°F13.5°C 50.9°F10.5°C 82% 9.2 mph ESE14.8 kmh ESE 15.0 mph24.1 kmh 30.28 in1025.4 mb - 0.00 in0.0 mm 0.00 in0.0 mm
11:25 AM 56.6°F13.7°C 51.5°F10.8°C 83% 9.2 mph SE14.8 kmh SE 16.1 mph25.9 kmh 30.29 in1025.7 mb - 0.00 in0.0 mm 0.00 in0.0 mm
11:20 AM 57.0°F13.9°C 51.6°F10.9°C 82% 9.2 mph ESE14.8 kmh ESE 13.8 mph22.2 kmh 30.29 in1025.7 mb - 0.00 in0.0 mm 0.00 in0.0 mm
11:15 AM 56.5°F13.6°C 51.4°F10.8°C 83% 10.4 mph SE16.7 kmh SE 15.0 mph24.1 kmh 30.29 in1025.7 mb - 0.00 in0.0 mm 0.00 in0.0 mm
11:10 AM 56.1°F13.4°C 51.0°F10.6°C 83% 10.4 mph SE16.7 kmh SE 12.7 mph20.4 kmh 30.30 in1026.1 mb - 0.00 in0.0 mm 0.00 in0.0 mm
11:00 AM 56.1°F13.4°C 51.1°F10.6°C 83% 9.2 mph SE14.8 kmh SE 12.7 mph20.4 kmh 30.30 in1026.1 mb - 0.00 in0.0 mm 0.00 in0.0 mm
10:55 AM 56.0°F13.3°C 51.0°F10.6°C 83% 10.4 mph SE16.7 kmh SE 13.8 mph22.2 kmh 30.31 in1026.4 mb - 0.00 in0.0 mm 0.00 in0.0 mm
10:50 AM 55.6°F13.1°C 50.9°F10.5°C 84% 10.4 mph SE16.7 kmh SE 13.8 mph22.2 kmh 30.31 in1026.4 mb - 0.00 in0.0 mm 0.00 in0.0 mm
10:45 AM 55.6°F13.1°C 49.8°F9.9°C 81% 9.2 mph SE14.8 kmh SE 12.7 mph20.4 kmh 30.31 in1026.4 mb - 0.00 in0.0 mm 0.00 in0.0 mm
10:40 AM 55.9°F13.3°C 50.4°F10.2°C 82% 9.2 mph SE14.8 kmh SE 15.0 mph24.1 kmh 30.31 in1026.4 mb - 0.00 in0.0 mm 0.00 in0.0 mm
10:35 AM 55.8°F13.2°C 50.3°F10.2°C 82% 9.2 mph SE14.8 kmh SE 12.7 mph20.4 kmh 30.31 in1026.4 mb - 0.00 in0.0 mm 0.00 in0.0 mm
10:30 AM 56.4°F13.6°C 51.0°F10.6°C 82% 9.2 mph SE14.8 kmh SE 13.8 mph22.2 kmh 30.31 in1026.4 mb - 0.00 in0.0 mm 0.00 in0.0 mm
10:25 AM 55.9°F13.3°C 50.9°F10.5°C 83% 9.2 mph SE14.8 kmh SE 11.5 mph18.5 kmh 30.31 in1026.4 mb - 0.00 in0.0 mm 0.00 in0.0 mm
10:20 AM 55.5°F13.1°C 50.4°F10.2°C 83% 9.2 mph SE14.8 kmh SE 11.5 mph18.5 kmh 30.31 in1026.4 mb - 0.00 in0.0 mm 0.00 in0.0 mm
10:15 AM 55.2°F12.9°C 50.1°F10.1°C 83% 8.1 mph SE13.0 kmh SE 12.7 mph20.4 kmh 30.31 in1026.4 mb - 0.00 in0.0 mm 0.00 in0.0 mm
10:10 AM 55.0°F12.8°C 50.3°F10.2°C 84% 8.1 mph SE13.0 kmh SE 11.5 mph18.5 kmh 30.32 in1026.8 mb - 0.00 in0.0 mm 0.00 in0.0 mm
10:00 AM 54.8°F12.7°C 50.1°F10.1°C 84% 8.1 mph SE13.0 kmh SE 11.5 mph18.5 kmh 30.32 in1026.8 mb - 0.00 in0.0 mm 0.00 in0.0 mm
09:55 AM 54.6°F12.6°C 50.2°F10.1°C 85% 9.2 mph SE14.8 kmh SE 11.5 mph18.5 kmh 30.32 in1026.8 mb - 0.00 in0.0 mm 0.00 in0.0 mm
09:50 AM 54.0°F12.2°C 49.6°F9.8°C 85% 9.2 mph SE14.8 kmh SE 11.5 mph18.5 kmh 30.32 in1026.8 mb - 0.00 in0.0 mm 0.00 in0.0 mm
09:45 AM 54.0°F12.2°C 49.6°F9.8°C 85% 9.2 mph SE14.8 kmh SE 16.1 mph25.9 kmh 30.32 in1026.8 mb - 0.00 in0.0 mm 0.00 in0.0 mm
09:40 AM 53.4°F11.9°C 49.3°F9.6°C 86% 9.2 mph SE14.8 kmh SE 15.0 mph24.1 kmh 30.32 in1026.8 mb - 0.00 in0.0 mm 0.00 in0.0 mm
09:35 AM 53.4°F11.9°C 49.1°F9.5°C 85% 9.2 mph SE14.8 kmh SE 15.0 mph24.1 kmh 30.32 in1026.8 mb - 0.00 in0.0 mm 0.00 in0.0 mm
09:30 AM 53.4°F11.9°C 49.6°F9.8°C 87% 9.2 mph SE14.8 kmh SE 12.7 mph20.4 kmh 30.32 in1026.8 mb - 0.00 in0.0 mm 0.00 in0.0 mm
09:25 AM 53.4°F11.9°C 49.3°F9.6°C 86% 8.1 mph SE13.0 kmh SE 16.1 mph25.9 kmh 30.32 in1026.8 mb - 0.00 in0.0 mm 0.00 in0.0 mm
09:20 AM 53.0°F11.7°C 49.8°F9.9°C 89% 8.1 mph ESE13.0 kmh ESE 11.5 mph18.5 kmh 30.32 in1026.8 mb - 0.00 in0.0 mm 0.00 in0.0 mm
09:15 AM 52.5°F11.4°C 49.0°F9.4°C 88% 9.2 mph SE14.8 kmh SE 13.8 mph22.2 kmh 30.32 in1026.8 mb - 0.00 in0.0 mm 0.00 in0.0 mm
09:10 AM 52.1°F11.2°C 49.0°F9.4°C 89% 9.2 mph SE14.8 kmh SE 9.2 mph14.8 kmh 30.33 in1027.1 mb - 0.00 in0.0 mm 0.00 in0.0 mm
09:00 AM 51.2°F10.7°C 48.4°F9.1°C 90% 8.1 mph SE13.0 kmh SE 12.7 mph20.4 kmh 30.33 in1027.1 mb - 0.00 in0.0 mm 0.00 in0.0 mm
08:55 AM 50.9°F10.5°C 48.1°F8.9°C 90% 9.2 mph ESE14.8 kmh ESE 12.7 mph20.4 kmh 30.33 in1027.1 mb - 0.00 in0.0 mm 0.00 in0.0 mm
08:50 AM 51.1°F10.6°C 47.7°F8.7°C 88% 9.2 mph SE14.8 kmh SE 11.5 mph18.5 kmh 30.33 in1027.1 mb - 0.00 in0.0 mm 0.00 in0.0 mm
08:45 AM 51.3°F10.7°C 47.8°F8.8°C 88% 8.1 mph SE13.0 kmh SE 12.7 mph20.4 kmh 30.33 in1027.1 mb - 0.00 in0.0 mm 0.00 in0.0 mm
08:40 AM 51.4°F10.8°C 48.0°F8.9°C 88% 8.1 mph SE13.0 kmh SE 11.5 mph18.5 kmh 30.34 in1027.4 mb - 0.00 in0.0 mm 0.00 in0.0 mm
08:35 AM 51.7°F10.9°C 48.2°F9.0°C 88% 8.1 mph ESE13.0 kmh ESE 11.5 mph18.5 kmh 30.34 in1027.4 mb - 0.00 in0.0 mm 0.00 in0.0 mm
08:30 AM 52.0°F11.1°C 48.2°F9.0°C 87% 8.1 mph SE13.0 kmh SE 9.2 mph14.8 kmh 30.34 in1027.4 mb - 0.00 in0.0 mm 0.00 in0.0 mm
08:25 AM 52.8°F11.6°C 48.7°F9.3°C 86% 6.9 mph SE11.1 kmh SE 10.4 mph16.7 kmh 30.34 in1027.4 mb - 0.00 in0.0 mm 0.00 in0.0 mm
08:20 AM 52.6°F11.4°C 48.8°F9.3°C 87% 6.9 mph ESE11.1 kmh ESE 6.9 mph11.1 kmh 30.34 in1027.4 mb - 0.00 in0.0 mm 0.00 in0.0 mm
08:15 AM 52.3°F11.3°C 48.9°F9.4°C 88% 5.8 mph ESE9.3 kmh ESE 9.2 mph14.8 kmh 30.34 in1027.4 mb - 0.00 in0.0 mm 0.00 in0.0 mm
08:10 AM 52.0°F11.1°C 48.2°F9.0°C 87% 5.8 mph ESE9.3 kmh ESE 11.5 mph18.5 kmh 30.35 in1027.8 mb - 0.00 in0.0 mm 0.00 in0.0 mm
08:00 AM 51.6°F10.9°C 48.1°F8.9°C 88% 5.8 mph E9.3 kmh E 5.8 mph9.3 kmh 30.35 in1027.8 mb - 0.00 in0.0 mm 0.00 in0.0 mm
07:55 AM 51.5°F10.8°C 48.1°F8.9°C 88% 4.6 mph ESE7.4 kmh ESE 10.4 mph16.7 kmh 30.35 in1027.8 mb - 0.00 in0.0 mm 0.00 in0.0 mm
07:50 AM 51.4°F10.8°C 48.3°F9.1°C 89% 4.6 mph ESE7.4 kmh ESE 9.2 mph14.8 kmh 30.35 in1027.8 mb - 0.00 in0.0 mm 0.00 in0.0 mm
07:45 AM 50.5°F10.3°C 47.4°F8.6°C 89% 5.8 mph ENE9.3 kmh ENE 5.8 mph9.3 kmh 30.35 in1027.8 mb - 0.00 in0.0 mm 0.00 in0.0 mm
07:40 AM 50.4°F10.2°C 47.8°F8.8°C 91% 5.8 mph E9.3 kmh E 8.1 mph13.0 kmh 30.36 in1028.1 mb - 0.00 in0.0 mm 0.00 in0.0 mm
07:35 AM 49.9°F9.9°C 47.1°F8.4°C 90% 4.6 mph ENE7.4 kmh ENE 9.2 mph14.8 kmh 30.36 in1028.1 mb - 0.00 in0.0 mm 0.00 in0.0 mm
07:30 AM 49.8°F9.9°C 47.3°F8.5°C 91% 4.6 mph ESE7.4 kmh ESE 8.1 mph13.0 kmh 30.36 in1028.1 mb - 0.00 in0.0 mm 0.00 in0.0 mm
07:25 AM 49.6°F9.8°C 46.8°F8.2°C 90% 4.6 mph ESE7.4 kmh ESE 6.9 mph11.1 kmh 30.37 in1028.4 mb - 0.00 in0.0 mm 0.00 in0.0 mm
07:20 AM 49.6°F9.8°C 46.7°F8.2°C 90% 4.6 mph E7.4 kmh E 8.1 mph13.0 kmh 30.37 in1028.4 mb - 0.00 in0.0 mm 0.00 in0.0 mm
07:15 AM 49.5°F9.7°C 46.6°F8.1°C 90% 4.6 mph E7.4 kmh E 8.1 mph13.0 kmh 30.37 in1028.4 mb - 0.00 in0.0 mm 0.00 in0.0 mm
07:10 AM 49.5°F9.7°C 46.9°F8.3°C 91% 4.6 mph SE7.4 kmh SE 6.9 mph11.1 kmh 30.37 in1028.4 mb - 0.00 in0.0 mm 0.00 in0.0 mm
07:00 AM 49.3°F9.6°C 47.1°F8.4°C 92% 4.6 mph ENE7.4 kmh ENE 8.1 mph13.0 kmh 30.37 in1028.4 mb - 0.00 in0.0 mm 0.00 in0.0 mm
06:55 AM 49.3°F9.6°C 47.1°F8.4°C 92% 4.6 mph E7.4 kmh E 8.1 mph13.0 kmh 30.37 in1028.4 mb - 0.00 in0.0 mm 0.00 in0.0 mm
06:50 AM 49.3°F9.6°C 47.3°F8.5°C 93% 4.6 mph E7.4 kmh E 6.9 mph11.1 kmh 30.37 in1028.4 mb - 0.00 in0.0 mm 0.00 in0.0 mm
06:45 AM 49.2°F9.6°C 47.3°F8.5°C 93% 5.8 mph ENE9.3 kmh ENE 4.6 mph7.4 kmh 30.37 in1028.4 mb - 0.00 in0.0 mm 0.00 in0.0 mm
06:40 AM 49.0°F9.4°C 47.1°F8.4°C 93% 5.8 mph E9.3 kmh E 5.8 mph9.3 kmh 30.37 in1028.4 mb - 0.00 in0.0 mm 0.00 in0.0 mm
06:35 AM 48.9°F9.4°C 47.0°F8.3°C 93% 6.9 mph ENE11.1 kmh ENE 6.9 mph11.1 kmh 30.37 in1028.4 mb - 0.00 in0.0 mm 0.00 in0.0 mm
06:30 AM 48.7°F9.3°C 46.8°F8.2°C 93% 6.9 mph ENE11.1 kmh ENE 9.2 mph14.8 kmh 30.37 in1028.4 mb - 0.00 in0.0 mm 0.00 in0.0 mm
06:25 AM 48.6°F9.2°C 46.6°F8.1°C 93% 6.9 mph ENE11.1 kmh ENE 8.1 mph13.0 kmh 30.37 in1028.4 mb - 0.00 in0.0 mm 0.00 in0.0 mm
06:20 AM 48.6°F9.2°C 46.6°F8.1°C 93% 6.9 mph ENE11.1 kmh ENE 10.4 mph16.7 kmh 30.37 in1028.4 mb - 0.00 in0.0 mm 0.00 in0.0 mm
06:15 AM 48.6°F9.2°C 46.6°F8.1°C 93% 5.8 mph ENE9.3 kmh ENE 13.8 mph22.2 kmh 30.37 in1028.4 mb - 0.00 in0.0 mm 0.00 in0.0 mm
06:10 AM 48.6°F9.2°C 46.6°F8.1°C 93% 5.8 mph E9.3 kmh E 9.2 mph14.8 kmh 30.37 in1028.4 mb - 0.00 in0.0 mm 0.00 in0.0 mm
06:00 AM 48.4°F9.1°C 46.7°F8.2°C 94% 4.6 mph ENE7.4 kmh ENE 8.1 mph13.0 kmh 30.37 in1028.4 mb - 0.00 in0.0 mm 0.00 in0.0 mm
05:55 AM 48.4°F9.1°C 47.0°F8.3°C 95% 4.6 mph E7.4 kmh E 6.9 mph11.1 kmh 30.37 in1028.4 mb - 0.00 in0.0 mm 0.00 in0.0 mm
05:50 AM 48.4°F9.1°C 47.3°F8.5°C 96% 4.6 mph ENE7.4 kmh ENE 6.9 mph11.1 kmh 30.37 in1028.4 mb - 0.00 in0.0 mm 0.00 in0.0 mm
05:45 AM 48.3°F9.1°C 47.2°F8.4°C 96% 3.5 mph E5.6 kmh E 6.9 mph11.1 kmh 30.37 in1028.4 mb - 0.00 in0.0 mm 0.00 in0.0 mm
05:40 AM 48.3°F9.1°C 47.4°F8.6°C 97% 3.5 mph ENE5.6 kmh ENE 5.8 mph9.3 kmh 30.37 in1028.4 mb - 0.00 in0.0 mm 0.00 in0.0 mm
05:35 AM 48.0°F8.9°C 47.2°F8.4°C 97% 4.6 mph NE7.4 kmh NE 3.5 mph5.6 kmh 30.37 in1028.4 mb - 0.00 in0.0 mm 0.00 in0.0 mm
05:30 AM 48.0°F8.9°C 47.2°F8.4°C 97% 4.6 mph ESE7.4 kmh ESE 6.9 mph11.1 kmh 30.37 in1028.4 mb - 0.00 in0.0 mm 0.00 in0.0 mm
05:25 AM 47.9°F8.8°C 47.1°F8.4°C 97% 3.5 mph ENE5.6 kmh ENE 6.9 mph11.1 kmh 30.37 in1028.4 mb - 0.00 in0.0 mm 0.00 in0.0 mm
05:20 AM 47.8°F8.8°C 47.3°F8.5°C 98% 3.5 mph ENE5.6 kmh ENE 6.9 mph11.1 kmh 30.37 in1028.4 mb - 0.00 in0.0 mm 0.00 in0.0 mm
05:15 AM 47.8°F8.8°C 47.2°F8.4°C 98% 4.6 mph ENE7.4 kmh ENE 4.6 mph7.4 kmh 30.37 in1028.4 mb - 0.00 in0.0 mm 0.00 in0.0 mm
05:10 AM 47.7°F8.7°C 47.1°F8.4°C 98% 4.6 mph NE7.4 kmh NE 4.6 mph7.4 kmh 30.37 in1028.4 mb - 0.00 in0.0 mm 0.00 in0.0 mm
05:00 AM 47.7°F8.7°C 47.1°F8.4°C 98% 4.6 mph NE7.4 kmh NE 5.8 mph9.3 kmh 30.37 in1028.4 mb - 0.00 in0.0 mm 0.00 in0.0 mm
04:55 AM 47.5°F8.6°C 46.9°F8.3°C 98% 4.6 mph NE7.4 kmh NE 5.8 mph9.3 kmh 30.37 in1028.4 mb - 0.00 in0.0 mm 0.00 in0.0 mm
04:50 AM 47.5°F8.6°C 46.9°F8.3°C 98% 4.6 mph NE7.4 kmh NE 6.9 mph11.1 kmh 30.37 in1028.4 mb - 0.00 in0.0 mm 0.00 in0.0 mm
04:45 AM 47.5°F8.6°C 46.9°F8.3°C 98% 4.6 mph ENE7.4 kmh ENE 5.8 mph9.3 kmh 30.37 in1028.4 mb - 0.00 in0.0 mm 0.00 in0.0 mm
04:40 AM 47.5°F8.6°C 47.2°F8.4°C 99% 4.6 mph NE7.4 kmh NE 6.9 mph11.1 kmh 30.38 in1028.8 mb - 0.00 in0.0 mm 0.00 in0.0 mm
04:35 AM 47.4°F8.6°C 47.1°F8.4°C 99% 5.8 mph E9.3 kmh E 4.6 mph7.4 kmh 30.38 in1028.8 mb - 0.00 in0.0 mm 0.00 in0.0 mm
04:30 AM 47.1°F8.4°C 46.9°F8.3°C 99% 5.8 mph NE9.3 kmh NE 5.8 mph9.3 kmh 30.38 in1028.8 mb - 0.00 in0.0 mm 0.00 in0.0 mm
04:25 AM 47.2°F8.4°C 46.7°F8.2°C 98% 4.6 mph ENE7.4 kmh ENE 4.6 mph7.4 kmh 30.38 in1028.8 mb - 0.00 in0.0 mm 0.00 in0.0 mm
04:20 AM 47.3°F8.5°C 47.0°F8.3°C 99% 4.6 mph ENE7.4 kmh ENE 8.1 mph13.0 kmh 30.38 in1028.8 mb - 0.00 in0.0 mm 0.00 in0.0 mm
04:15 AM 47.3°F8.5°C 46.8°F8.2°C 98% 4.6 mph NE7.4 kmh NE 5.8 mph9.3 kmh 30.38 in1028.8 mb - 0.00 in0.0 mm 0.00 in0.0 mm
04:10 AM 47.3°F8.5°C 47.0°F8.3°C 99% 4.6 mph NNE7.4 kmh NNE 5.8 mph9.3 kmh 30.39 in1029.1 mb - 0.00 in0.0 mm 0.00 in0.0 mm
04:00 AM 47.3°F8.5°C 47.0°F8.3°C 99% 4.6 mph NE7.4 kmh NE 8.1 mph13.0 kmh 30.39 in1029.1 mb - 0.00 in0.0 mm 0.00 in0.0 mm
03:55 AM 47.5°F8.6°C 47.2°F8.4°C 99% 4.6 mph NE7.4 kmh NE 6.9 mph11.1 kmh 30.39 in1029.1 mb - 0.00 in0.0 mm 0.00 in0.0 mm
03:50 AM 47.5°F8.6°C 47.2°F8.4°C 99% 4.6 mph NE7.4 kmh NE 6.9 mph11.1 kmh 30.39 in1029.1 mb - 0.00 in0.0 mm 0.00 in0.0 mm
03:45 AM 47.5°F8.6°C 47.2°F8.4°C 99% 4.6 mph NE7.4 kmh NE 5.8 mph9.3 kmh 30.39 in1029.1 mb - 0.00 in0.0 mm 0.00 in0.0 mm
03:40 AM 47.5°F8.6°C 47.2°F8.4°C 99% 4.6 mph NE7.4 kmh NE 5.8 mph9.3 kmh 30.39 in1029.1 mb - 0.00 in0.0 mm 0.00 in0.0 mm
03:35 AM 47.5°F8.6°C 47.2°F8.4°C 99% 4.6 mph NNE7.4 kmh NNE 8.1 mph13.0 kmh 30.39 in1029.1 mb - 0.00 in0.0 mm 0.00 in0.0 mm
03:30 AM 47.5°F8.6°C 47.2°F8.4°C 99% 4.6 mph NE7.4 kmh NE 6.9 mph11.1 kmh 30.39 in1029.1 mb - 0.00 in0.0 mm 0.00 in0.0 mm
03:25 AM 47.5°F8.6°C 47.2°F8.4°C 99% 4.6 mph NE7.4 kmh NE 5.8 mph9.3 kmh 30.39 in1029.1 mb - 0.00 in0.0 mm 0.00 in0.0 mm
03:20 AM 47.5°F8.6°C 47.2°F8.4°C 99% 4.6 mph NE7.4 kmh NE 5.8 mph9.3 kmh 30.39 in1029.1 mb - 0.00 in0.0 mm 0.00 in0.0 mm
03:15 AM 47.7°F8.7°C 47.4°F8.6°C 99% 4.6 mph NE7.4 kmh NE 6.9 mph11.1 kmh 30.39 in1029.1 mb - 0.00 in0.0 mm 0.00 in0.0 mm
03:10 AM 47.7°F8.7°C 47.4°F8.6°C 99% 4.6 mph NE7.4 kmh NE 8.1 mph13.0 kmh 30.40 in1029.5 mb - 0.00 in0.0 mm 0.00 in0.0 mm
03:00 AM 47.7°F8.7°C 47.4°F8.6°C 99% 3.5 mph NE5.6 kmh NE 5.8 mph9.3 kmh 30.40 in1029.5 mb - 0.00 in0.0 mm 0.00 in0.0 mm
02:55 AM 47.7°F8.7°C 47.4°F8.6°C 99% 3.5 mph NE5.6 kmh NE 5.8 mph9.3 kmh 30.40 in1029.5 mb - 0.00 in0.0 mm 0.00 in0.0 mm
02:50 AM 47.7°F8.7°C 47.4°F8.6°C 99% 3.5 mph ENE5.6 kmh ENE 4.6 mph7.4 kmh 30.40 in1029.5 mb - 0.00 in0.0 mm 0.00 in0.0 mm
02:45 AM 47.8°F8.8°C 47.6°F8.7°C 99% 4.6 mph NE7.4 kmh NE 5.8 mph9.3 kmh 30.40 in1029.5 mb - 0.00 in0.0 mm 0.00 in0.0 mm
02:40 AM 47.8°F8.8°C 47.6°F8.7°C 99% 4.6 mph NE7.4 kmh NE 4.6 mph7.4 kmh 30.41 in1029.8 mb - 0.00 in0.0 mm 0.00 in0.0 mm
02:35 AM 47.8°F8.8°C 47.6°F8.7°C 99% 4.6 mph E7.4 kmh E 8.1 mph13.0 kmh 30.41 in1029.8 mb - 0.00 in0.0 mm 0.00 in0.0 mm
02:30 AM 48.0°F8.9°C 47.7°F8.7°C 99% 4.6 mph ENE7.4 kmh ENE 5.8 mph9.3 kmh 30.41 in1029.8 mb - 0.00 in0.0 mm 0.00 in0.0 mm
02:25 AM 48.0°F8.9°C 47.8°F8.8°C 99% 4.6 mph ENE7.4 kmh ENE 4.6 mph7.4 kmh 30.42 in1030.1 mb - 0.00 in0.0 mm 0.00 in0.0 mm
02:20 AM 48.0°F8.9°C 47.8°F8.8°C 99% 4.6 mph E7.4 kmh E 6.9 mph11.1 kmh 30.42 in1030.1 mb - 0.00 in0.0 mm 0.00 in0.0 mm
02:15 AM 48.0°F8.9°C 47.8°F8.8°C 99% 4.6 mph NE7.4 kmh NE 5.8 mph9.3 kmh 30.42 in1030.1 mb - 0.00 in0.0 mm 0.00 in0.0 mm
02:10 AM 48.0°F8.9°C 47.8°F8.8°C 99% 4.6 mph NE7.4 kmh NE 4.6 mph7.4 kmh 30.43 in1030.5 mb - 0.00 in0.0 mm 0.00 in0.0 mm
02:00 AM 48.2°F9.0°C 47.9°F8.8°C 99% 4.6 mph NE7.4 kmh NE 4.6 mph7.4 kmh 30.43 in1030.5 mb - 0.00 in0.0 mm 0.00 in0.0 mm
01:55 AM 48.2°F9.0°C 47.9°F8.8°C 99% 4.6 mph ENE7.4 kmh ENE 5.8 mph9.3 kmh 30.43 in1030.5 mb - 0.00 in0.0 mm 0.00 in0.0 mm
01:50 AM 48.2°F9.0°C 48.0°F8.9°C 99% 4.6 mph NE7.4 kmh NE 6.9 mph11.1 kmh 30.43 in1030.5 mb - 0.00 in0.0 mm 0.00 in0.0 mm
01:45 AM 48.3°F9.1°C 48.0°F8.9°C 99% 3.5 mph NE5.6 kmh NE 4.6 mph7.4 kmh 30.43 in1030.5 mb - 0.00 in0.0 mm 0.00 in0.0 mm
01:40 AM 48.4°F9.1°C 48.1°F8.9°C 99% 3.5 mph NE5.6 kmh NE 5.8 mph9.3 kmh 30.44 in1030.8 mb - 0.00 in0.0 mm 0.00 in0.0 mm
01:35 AM 48.4°F9.1°C 48.1°F8.9°C 99% 4.6 mph NE7.4 kmh NE 6.9 mph11.1 kmh 30.44 in1030.8 mb - 0.00 in0.0 mm 0.00 in0.0 mm
01:30 AM 48.4°F9.1°C 48.1°F8.9°C 99% 4.6 mph NE7.4 kmh NE 5.8 mph9.3 kmh 30.44 in1030.8 mb - 0.00 in0.0 mm 0.00 in0.0 mm
01:25 AM 48.4°F9.1°C 48.1°F8.9°C 99% 4.6 mph NE7.4 kmh NE 5.8 mph9.3 kmh 30.45 in1031.2 mb - 0.00 in0.0 mm 0.00 in0.0 mm
01:20 AM 48.4°F9.1°C 48.1°F8.9°C 99% 4.6 mph NE7.4 kmh NE 5.8 mph9.3 kmh 30.45 in1031.2 mb - 0.00 in0.0 mm 0.00 in0.0 mm
01:15 AM 48.4°F9.1°C 48.1°F8.9°C 99% 3.5 mph NE5.6 kmh NE 5.8 mph9.3 kmh 30.45 in1031.2 mb - 0.00 in0.0 mm 0.00 in0.0 mm
01:10 AM 48.4°F9.1°C 48.1°F8.9°C 99% 3.5 mph NE5.6 kmh NE 5.8 mph9.3 kmh 30.45 in1031.2 mb - 0.00 in0.0 mm 0.00 in0.0 mm
01:00 AM 48.4°F9.1°C 48.1°F8.9°C 99% 4.6 mph NE7.4 kmh NE 3.5 mph5.6 kmh 30.45 in1031.2 mb - 0.00 in0.0 mm 0.00 in0.0 mm
12:55 AM 48.4°F9.1°C 48.1°F8.9°C 99% 4.6 mph NE7.4 kmh NE 6.9 mph11.1 kmh 30.45 in1031.2 mb - 0.00 in0.0 mm 0.00 in0.0 mm
12:50 AM 48.4°F9.1°C 48.1°F8.9°C 99% 4.6 mph NE7.4 kmh NE 5.8 mph9.3 kmh 30.45 in1031.2 mb - 0.00 in0.0 mm 0.00 in0.0 mm
12:45 AM 48.6°F9.2°C 48.3°F9.1°C 99% 4.6 mph NE7.4 kmh NE 6.9 mph11.1 kmh 30.45 in1031.2 mb - 0.00 in0.0 mm 0.00 in0.0 mm
12:40 AM 48.6°F9.2°C 48.3°F9.1°C 99% 4.6 mph ENE7.4 kmh ENE 6.9 mph11.1 kmh 30.45 in1031.2 mb - 0.00 in0.0 mm 0.00 in0.0 mm
12:35 AM 48.6°F9.2°C 48.3°F9.1°C 99% 4.6 mph ENE7.4 kmh ENE 5.8 mph9.3 kmh 30.45 in1031.2 mb - 0.00 in0.0 mm 0.00 in0.0 mm
12:30 AM 48.7°F9.3°C 48.4°F9.1°C 99% 4.6 mph ENE7.4 kmh ENE 5.8 mph9.3 kmh 30.45 in1031.2 mb - 0.00 in0.0 mm 0.00 in0.0 mm
12:25 AM 48.6°F9.2°C 48.4°F9.1°C 99% 4.6 mph NE7.4 kmh NE 4.6 mph7.4 kmh 30.46 in1031.5 mb - 0.00 in0.0 mm 0.00 in0.0 mm
12:20 AM 48.7°F9.3°C 48.4°F9.1°C 99% 4.6 mph ENE7.4 kmh ENE 10.4 mph16.7 kmh 30.46 in1031.5 mb - 0.00 in0.0 mm 0.00 in0.0 mm
12:15 AM 48.7°F9.3°C 48.5°F9.2°C 99% 4.6 mph NE7.4 kmh NE 6.9 mph11.1 kmh 30.46 in1031.5 mb - 0.00 in0.0 mm 0.00 in0.0 mm
12:10 AM 48.7°F9.3°C 48.5°F9.2°C 99% 4.6 mph NE7.4 kmh NE 8.1 mph13.0 kmh 30.46 in1031.5 mb - 0.00 in0.0 mm 0.00 in0.0 mm
12:00 AM 48.7°F9.3°C 48.5°F9.2°C 99% 4.6 mph ENE7.4 kmh ENE 8.1 mph13.0 kmh 30.46 in1031.5 mb - 0.00 in0.0 mm 0.00 in0.0 mm